Time;durP1;ratioP1;P1;durP2;ratioP2;P2;SDS_P1;SDS_P2;PMS_P1;PMS_P2;Temp;Humidity;BMP_temperature;BMP_pressure;BME280_temperature;BME280_humidity;BME280_pressure;Samples;Min_cycle;Max_cycle;Signal;HPM_P1;HPM_P2
2022/11/14 00:00:01;;;;;;;62.85;24.27;;;7.00;99.90;;;;;;5065207;28;20118;-67
2022/11/14 00:02:27;;;;;;;59.50;24.73;;;7.00;99.90;;;;;;5062033;28;20062;-67
2022/11/14 00:04:53;;;;;;;64.43;24.52;;;7.00;99.90;;;;;;5071064;28;20036;-67
2022/11/14 00:07:18;;;;;;;63.67;23.20;;;7.00;99.90;;;;;;5073203;28;20121;-67
2022/11/14 00:09:44;;;;;;;57.78;23.27;;;7.00;99.90;;;;;;5057992;28;20044;-67
2022/11/14 00:12:11;;;;;;;57.42;23.27;;;7.00;99.90;;;;;;5064746;28;20029;-67
2022/11/14 00:14:37;;;;;;;56.28;23.60;;;7.00;99.90;;;;;;5074908;28;20463;-67
2022/11/14 00:17:04;;;;;;;58.00;25.45;;;7.00;99.90;;;;;;5063310;28;20037;-67
2022/11/14 00:19:29;;;;;;;66.35;25.05;;;7.00;99.90;;;;;;5062120;28;20624;-67
2022/11/14 00:21:55;;;;;;;57.75;22.73;;;7.10;99.90;;;;;;5074452;28;20107;-67
2022/11/14 00:24:21;;;;;;;58.58;23.50;;;7.00;99.90;;;;;;5074832;28;20033;-67
2022/11/14 00:26:47;;;;;;;60.53;25.48;;;7.10;99.90;;;;;;5065225;28;20069;-63
2022/11/14 00:29:14;;;;;;;58.78;24.58;;;7.10;99.90;;;;;;5066778;28;20040;-66
2022/11/14 00:31:40;;;;;;;57.55;24.13;;;7.10;99.90;;;;;;5073979;28;20078;-67
2022/11/14 00:34:06;;;;;;;61.40;23.88;;;7.10;99.90;;;;;;5070924;28;20032;-65
2022/11/14 00:36:32;;;;;;;58.03;24.67;;;7.10;99.90;;;;;;5073888;28;20398;-66
2022/11/14 00:38:58;;;;;;;63.05;25.67;;;7.10;99.90;;;;;;5074507;28;20040;-65
2022/11/14 00:41:24;;;;;;;59.85;25.15;;;7.10;99.90;;;;;;5066321;28;20032;-67
2022/11/14 00:43:49;;;;;;;63.55;26.00;;;7.10;99.90;;;;;;5071078;28;20475;-66
2022/11/14 00:46:15;;;;;;;66.32;26.25;;;7.10;99.90;;;;;;5074531;28;20433;-66
2022/11/14 00:48:41;;;;;;;64.97;27.00;;;7.10;99.90;;;;;;5071234;28;20130;-66
2022/11/14 00:51:07;;;;;;;61.90;25.77;;;7.10;99.90;;;;;;5069133;28;20396;-66
2022/11/14 00:53:32;;;;;;;65.57;26.98;;;7.10;99.90;;;;;;5070125;28;20041;-67
2022/11/14 00:55:58;;;;;;;65.68;27.70;;;7.10;99.90;;;;;;5073711;28;20043;-65
2022/11/14 00:58:23;;;;;;;66.13;26.98;;;7.10;99.90;;;;;;5066914;28;20037;-66
2022/11/14 01:00:50;;;;;;;64.38;26.85;;;7.00;99.90;;;;;;5061616;28;20372;-66
2022/11/14 01:03:15;;;;;;;63.30;26.42;;;7.00;99.90;;;;;;5073329;28;20390;-67
2022/11/14 01:05:43;;;;;;;66.35;25.95;;;7.00;99.90;;;;;;5068620;28;20051;-66
2022/11/14 01:08:08;;;;;;;66.00;27.05;;;6.90;99.90;;;;;;5069247;28;20032;-67
2022/11/14 01:10:41;;;;;;;68.25;28.48;;;6.80;99.90;;;;;;5073321;28;20063;-67
2022/11/14 01:13:07;;;;;;;69.22;27.45;;;6.80;99.90;;;;;;5073743;28;20586;-66
2022/11/14 01:15:37;;;;;;;62.95;26.15;;;6.70;99.90;;;;;;5072871;28;20169;-65
2022/11/14 01:18:02;;;;;;;65.65;26.90;;;6.70;99.90;;;;;;5061555;28;20032;-66
2022/11/14 01:20:28;;;;;;;63.40;26.35;;;6.70;99.90;;;;;;5073297;28;20051;-67
2022/11/14 01:22:54;;;;;;;64.47;27.27;;;6.60;99.90;;;;;;5067644;28;20041;-66
2022/11/14 01:25:19;;;;;;;67.05;27.65;;;6.60;99.90;;;;;;5065425;28;20039;-67
2022/11/14 01:27:45;;;;;;;70.53;27.95;;;6.60;99.90;;;;;;5073419;28;20187;-67
2022/11/14 01:30:11;;;;;;;66.90;27.63;;;6.50;99.90;;;;;;5073567;28;20049;-66
2022/11/14 01:32:37;;;;;;;65.13;26.90;;;6.50;99.90;;;;;;5056323;28;20041;-67
2022/11/14 01:35:02;;;;;;;70.85;28.02;;;6.40;99.90;;;;;;5072088;28;20067;-67
2022/11/14 01:37:28;;;;;;;68.88;27.75;;;6.40;99.90;;;;;;5073433;28;20037;-67
2022/11/14 01:39:53;;;;;;;70.65;28.73;;;6.30;99.90;;;;;;5060946;28;20033;-67
2022/11/14 01:42:19;;;;;;;71.85;29.25;;;6.30;99.90;;;;;;5068145;28;20075;-67
2022/11/14 01:44:51;;;;;;;76.72;29.67;;;6.30;99.90;;;;;;5073028;28;20052;-66
2022/11/14 01:47:24;;;;;;;75.50;28.98;;;6.40;99.90;;;;;;5073511;28;20055;-67
2022/11/14 01:49:54;;;;;;;70.07;28.02;;;6.30;99.90;;;;;;5068996;28;20119;-67
2022/11/14 01:52:26;;;;;;;72.63;28.50;;;6.30;99.90;;;;;;5066891;28;20036;-65
2022/11/14 01:54:54;;;;;;;69.85;28.65;;;6.40;99.90;;;;;;5071533;28;20040;-65
2022/11/14 01:57:28;;;;;;;73.15;29.73;;;6.30;99.90;;;;;;5063952;28;20108;-64
2022/11/14 01:59:58;;;;;;;72.00;28.75;;;6.30;99.90;;;;;;5063786;28;20115;-65
2022/11/14 02:02:25;;;;;;;75.47;30.52;;;6.30;99.90;;;;;;5081821;28;20044;-64
2022/11/14 02:05:07;;;;;;;74.45;29.33;;;6.30;99.90;;;;;;5088375;28;20119;-64
2022/11/14 02:07:36;;;;;;;74.68;29.63;;;6.30;99.90;;;;;;5067529;28;20049;-65
2022/11/14 02:10:07;;;;;;;72.35;29.30;;;6.20;99.90;;;;;;5071045;28;20036;-65
2022/11/14 02:12:33;;;;;;;75.35;29.27;;;6.20;99.90;;;;;;5068867;28;20052;-65
2022/11/14 02:15:00;;;;;;;76.68;30.77;;;6.20;99.90;;;;;;5060038;28;20409;-67
2022/11/14 02:17:26;;;;;;;80.63;30.48;;;6.20;99.90;;;;;;5081762;28;20036;-65
2022/11/14 02:19:54;;;;;;;76.28;29.80;;;6.20;99.90;;;;;;5072448;28;20033;-64
2022/11/14 02:22:20;;;;;;;79.22;31.02;;;6.20;99.90;;;;;;5060507;28;20028;-65
2022/11/14 02:24:45;;;;;;;82.40;30.33;;;6.20;99.90;;;;;;5068537;28;20089;-66
2022/11/14 02:27:14;;;;;;;79.32;30.95;;;6.20;99.90;;;;;;5071320;28;20072;-65
2022/11/14 02:29:39;;;;;;;82.82;31.65;;;6.20;99.90;;;;;;5064375;28;20041;-67
2022/11/14 02:32:05;;;;;;;75.72;31.85;;;6.30;99.90;;;;;;5064191;28;20039;-65
2022/11/14 02:34:31;;;;;;;86.15;31.92;;;6.20;99.90;;;;;;5077456;28;20497;-65
2022/11/14 02:36:57;;;;;;;85.57;32.60;;;6.30;99.90;;;;;;5091216;28;20032;-64
2022/11/14 02:39:23;;;;;;;84.82;31.00;;;6.30;99.90;;;;;;5066133;28;20115;-65
2022/11/14 02:41:50;;;;;;;80.50;30.02;;;6.30;99.90;;;;;;5073691;28;20127;-64
2022/11/14 02:44:16;;;;;;;82.55;30.88;;;6.30;99.90;;;;;;5071913;28;20082;-64
2022/11/14 02:46:41;;;;;;;79.68;30.52;;;6.40;99.90;;;;;;5067963;28;20640;-64
2022/11/14 02:49:07;;;;;;;81.75;32.40;;;6.40;99.90;;;;;;5070807;28;20028;-65
2022/11/14 02:51:33;;;;;;;79.97;31.35;;;6.40;99.90;;;;;;5071453;28;20519;-64
2022/11/14 02:53:58;;;;;;;78.82;31.00;;;6.40;99.90;;;;;;5072195;28;20032;-64
2022/11/14 02:56:24;;;;;;;76.75;31.08;;;6.40;99.90;;;;;;5066131;28;20537;-66
2022/11/14 02:58:49;;;;;;;77.22;30.85;;;6.40;99.90;;;;;;5068891;28;20036;-66
2022/11/14 03:01:15;;;;;;;83.93;31.65;;;6.40;99.90;;;;;;5071300;28;20037;-66
2022/11/14 03:03:40;;;;;;;77.13;31.67;;;6.40;99.90;;;;;;5072023;28;20487;-66
2022/11/14 03:06:06;;;;;;;78.10;30.25;;;6.40;99.90;;;;;;5063396;28;20040;-65
2022/11/14 03:08:32;;;;;;;79.93;30.10;;;6.40;99.90;;;;;;5076908;28;20039;-66
2022/11/14 03:11:04;;;;;;;78.43;31.88;;;6.40;99.90;;;;;;5091694;28;20394;-66
2022/11/14 03:13:29;;;;;;;83.13;32.30;;;6.50;99.90;;;;;;5065389;28;20035;-66
2022/11/14 03:15:55;;;;;;;83.13;31.23;;;6.40;99.90;;;;;;5071923;28;20158;-66
2022/11/14 03:18:21;;;;;;;77.50;31.45;;;6.40;99.90;;;;;;5071952;28;20028;-65
2022/11/14 03:20:46;;;;;;;73.40;30.20;;;6.40;99.90;;;;;;5058112;28;20523;-66
2022/11/14 03:23:12;;;;;;;72.50;30.00;;;6.40;99.90;;;;;;5067489;28;20089;-66
2022/11/14 03:25:38;;;;;;;76.20;30.77;;;6.40;99.90;;;;;;5071412;28;20032;-66
2022/11/14 03:28:03;;;;;;;84.68;31.63;;;6.40;99.90;;;;;;5071492;28;20128;-66
2022/11/14 03:30:30;;;;;;;75.38;30.48;;;6.40;99.90;;;;;;5061974;28;20125;-66
2022/11/14 03:32:56;;;;;;;74.90;31.05;;;6.40;99.90;;;;;;5064782;28;20033;-66
2022/11/14 03:35:21;;;;;;;76.18;31.80;;;6.40;99.90;;;;;;5071503;28;20040;-65
2022/11/14 03:37:47;;;;;;;78.00;31.85;;;6.40;99.90;;;;;;5057659;28;20041;-65
2022/11/14 03:40:13;;;;;;;74.10;31.70;;;6.40;99.90;;;;;;5068559;28;20055;-67
2022/11/14 03:42:38;;;;;;;72.10;30.45;;;6.40;99.90;;;;;;5070522;28;20090;-67
2022/11/14 03:45:04;;;;;;;77.78;31.85;;;6.40;99.90;;;;;;5071661;28;20525;-66
2022/11/14 03:47:30;;;;;;;75.03;31.30;;;6.40;99.90;;;;;;5065317;28;20475;-67
2022/11/14 03:49:56;;;;;;;74.20;31.08;;;6.40;99.90;;;;;;5070678;28;20068;-66
2022/11/14 03:52:21;;;;;;;72.00;30.02;;;6.30;99.90;;;;;;5071099;28;20041;-67
2022/11/14 03:54:47;;;;;;;77.32;31.15;;;6.30;99.90;;;;;;5072317;28;20078;-66
2022/11/14 03:57:12;;;;;;;76.20;32.17;;;6.30;99.90;;;;;;5063063;28;20086;-66
2022/11/14 03:59:38;;;;;;;72.50;31.10;;;6.30;99.90;;;;;;5080763;28;20394;-66
2022/11/14 04:02:04;;;;;;;80.05;32.28;;;6.30;99.90;;;;;;5089890;28;20044;-67
2022/11/14 04:04:29;;;;;;;75.78;30.55;;;6.30;99.90;;;;;;5058843;28;20043;-67
2022/11/14 04:06:55;;;;;;;74.53;31.23;;;6.30;99.90;;;;;;5068645;28;20032;-66
2022/11/14 04:09:20;;;;;;;70.72;31.63;;;6.30;99.90;;;;;;5071112;28;20491;-63
2022/11/14 04:11:46;;;;;;;80.85;31.15;;;6.30;99.90;;;;;;5065944;28;20040;-66
2022/11/14 04:14:12;;;;;;;73.82;31.35;;;6.30;99.90;;;;;;5071107;28;20032;-65
2022/11/14 04:16:37;;;;;;;72.80;30.52;;;6.30;99.90;;;;;;5071344;28;20518;-65
2022/11/14 04:19:03;;;;;;;77.72;31.00;;;6.40;99.90;;;;;;5067241;28;20037;-65
2022/11/14 04:21:28;;;;;;;74.63;31.15;;;6.30;99.90;;;;;;5066334;28;20117;-65
2022/11/14 04:23:54;;;;;;;81.72;31.88;;;6.40;99.90;;;;;;5069759;28;20048;-65
2022/11/14 04:26:19;;;;;;;75.88;31.20;;;6.40;99.90;;;;;;5053234;28;20028;-65
2022/11/14 04:28:45;;;;;;;80.30;32.55;;;6.40;99.90;;;;;;5065983;28;20051;-65
2022/11/14 04:31:10;;;;;;;75.25;31.50;;;6.40;99.90;;;;;;5070395;28;20407;-65
2022/11/14 04:33:36;;;;;;;72.20;30.70;;;6.40;99.90;;;;;;5071267;28;20068;-65
2022/11/14 04:36:02;;;;;;;75.47;31.40;;;6.40;99.90;;;;;;5066019;28;20419;-65
2022/11/14 04:38:27;;;;;;;80.20;31.40;;;6.40;99.90;;;;;;5060175;28;20032;-65
2022/11/14 04:40:53;;;;;;;79.28;32.30;;;6.40;99.90;;;;;;5061200;28;20144;-65
2022/11/14 04:43:19;;;;;;;74.15;31.33;;;6.40;99.90;;;;;;5056745;28;20043;-65
2022/11/14 04:45:45;;;;;;;76.18;31.70;;;6.40;99.90;;;;;;5063967;28;20557;-66
2022/11/14 04:48:12;;;;;;;72.63;30.52;;;6.40;99.90;;;;;;5076704;28;20036;-65
2022/11/14 04:50:37;;;;;;;78.15;31.85;;;6.40;99.90;;;;;;5070394;28;20038;-65
2022/11/14 04:53:03;;;;;;;75.18;30.55;;;6.40;99.90;;;;;;5056547;28;20131;-65
2022/11/14 04:55:29;;;;;;;77.80;30.38;;;6.40;99.90;;;;;;5066980;28;20143;-65
2022/11/14 04:57:56;;;;;;;76.32;31.25;;;6.40;99.90;;;;;;5074036;28;20452;-65
2022/11/14 05:00:22;;;;;;;81.47;32.53;;;6.40;99.90;;;;;;5065443;28;20051;-65
2022/11/14 05:02:48;;;;;;;76.60;30.88;;;6.40;99.90;;;;;;5073283;28;20402;-65
2022/11/14 05:05:13;;;;;;;85.85;33.15;;;6.40;99.90;;;;;;5082909;28;20502;-65
2022/11/14 05:07:39;;;;;;;76.93;32.05;;;6.40;99.90;;;;;;5094160;28;20039;-65
2022/11/14 05:10:05;;;;;;;81.13;32.55;;;6.50;99.90;;;;;;5074498;28;20076;-65
2022/11/14 05:12:31;;;;;;;80.45;32.30;;;6.50;99.90;;;;;;5074667;28;20433;-65
2022/11/14 05:14:57;;;;;;;75.50;32.00;;;6.40;99.90;;;;;;5086132;28;20035;-65
2022/11/14 05:17:22;;;;;;;85.40;32.75;;;6.40;99.90;;;;;;5074094;28;20693;-65
2022/11/14 05:19:48;;;;;;;78.82;32.60;;;6.40;99.90;;;;;;5075252;28;20078;-65
2022/11/14 05:22:13;;;;;;;79.30;31.70;;;6.40;99.90;;;;;;5073416;28;20731;-65
2022/11/14 05:24:39;;;;;;;81.70;32.47;;;6.40;99.90;;;;;;5067043;28;20036;-65
2022/11/14 05:27:05;;;;;;;75.63;31.45;;;6.40;99.90;;;;;;5071099;28;20394;-65
2022/11/14 05:29:30;;;;;;;84.90;32.95;;;6.40;99.90;;;;;;5073512;28;20072;-65
2022/11/14 05:31:56;;;;;;;83.30;33.78;;;6.40;99.90;;;;;;5073029;28;20049;-65
2022/11/14 05:34:23;;;;;;;77.57;33.08;;;6.40;99.90;;;;;;5064928;28;20086;-65
2022/11/14 05:36:48;;;;;;;80.45;32.10;;;6.40;99.90;;;;;;5072930;28;20062;-65
2022/11/14 05:39:15;;;;;;;83.93;33.30;;;6.40;99.90;;;;;;5068442;28;20036;-65
2022/11/14 05:41:41;;;;;;;78.93;31.92;;;6.40;99.90;;;;;;5059859;28;20040;-65
2022/11/14 05:44:07;;;;;;;79.38;32.50;;;6.40;99.90;;;;;;5068972;28;20041;-65
2022/11/14 05:46:32;;;;;;;76.60;31.73;;;6.40;99.90;;;;;;5072493;28;20043;-67
2022/11/14 05:48:58;;;;;;;77.80;32.15;;;6.40;99.90;;;;;;5073142;28;20051;-66
2022/11/14 05:51:24;;;;;;;80.85;33.55;;;6.30;99.90;;;;;;5061565;28;20048;-66
2022/11/14 05:53:50;;;;;;;80.50;31.55;;;6.30;99.90;;;;;;5076378;28;20032;-66
2022/11/14 05:56:15;;;;;;;79.13;31.75;;;6.30;99.90;;;;;;5072973;28;20072;-66
2022/11/14 05:58:41;;;;;;;82.28;31.77;;;6.30;99.90;;;;;;5056553;28;20069;-65
2022/11/14 06:01:13;;;;;;;76.32;31.67;;;6.30;99.90;;;;;;5072881;28;20718;-66
2022/11/14 06:03:41;;;;;;;78.80;31.60;;;6.30;99.90;;;;;;5068898;28;20040;-66
2022/11/14 06:06:08;;;;;;;79.20;32.55;;;6.20;99.90;;;;;;5071213;28;20036;-66
2022/11/14 06:08:35;;;;;;;79.53;31.73;;;6.20;99.90;;;;;;5060803;28;20402;-66
2022/11/14 06:11:02;;;;;;;77.55;30.60;;;6.20;99.90;;;;;;5076606;28;20144;-66
2022/11/14 06:13:28;;;;;;;77.00;30.85;;;6.20;99.90;;;;;;5072650;28;20572;-66
2022/11/14 06:15:58;;;;;;;79.07;32.20;;;6.20;99.90;;;;;;5065328;28;20072;-66
2022/11/14 06:18:24;;;;;;;78.25;30.55;;;6.20;99.90;;;;;;5072417;28;20033;-66
2022/11/14 06:20:49;;;;;;;75.18;30.73;;;6.20;99.90;;;;;;5062275;28;20082;-66
2022/11/14 06:23:15;;;;;;;78.20;29.75;;;6.20;99.90;;;;;;5062814;28;20043;-67
2022/11/14 06:25:40;;;;;;;79.50;31.02;;;6.10;99.90;;;;;;5071342;28;20407;-66
2022/11/14 06:28:06;;;;;;;78.28;31.13;;;6.10;99.90;;;;;;5071937;28;20043;-66
2022/11/14 06:30:32;;;;;;;76.78;31.30;;;6.00;99.90;;;;;;5072337;28;20051;-66
2022/11/14 06:32:58;;;;;;;76.55;30.23;;;6.00;99.90;;;;;;5059567;28;20039;-66
2022/11/14 06:35:24;;;;;;;77.82;29.65;;;5.90;99.90;;;;;;5066100;28;20044;-66
2022/11/14 06:37:50;;;;;;;76.05;30.75;;;5.90;99.90;;;;;;5068641;28;20143;-66
2022/11/14 06:40:15;;;;;;;74.43;29.95;;;5.80;99.90;;;;;;5051391;28;20117;-66
2022/11/14 06:42:41;;;;;;;77.03;31.75;;;5.80;99.90;;;;;;5065273;28;20037;-67
2022/11/14 06:45:07;;;;;;;77.53;31.05;;;5.70;99.90;;;;;;5068581;28;20040;-67
2022/11/14 06:47:33;;;;;;;82.50;32.30;;;5.70;99.90;;;;;;5068785;28;20049;-66
2022/11/14 06:49:58;;;;;;;81.63;32.60;;;5.70;99.90;;;;;;5062083;28;20051;-67
2022/11/14 06:52:25;;;;;;;80.40;30.58;;;5.70;99.90;;;;;;5059465;28;20041;-67
2022/11/14 06:54:51;;;;;;;73.18;30.10;;;5.70;99.90;;;;;;5071729;28;20055;-68
2022/11/14 06:57:17;;;;;;;80.50;31.15;;;5.60;99.90;;;;;;5064836;28;20111;-66
2022/11/14 06:59:43;;;;;;;73.70;28.80;;;5.60;99.90;;;;;;5065666;28;20127;-65
2022/11/14 07:02:12;;;;;;;77.00;29.73;;;5.60;99.90;;;;;;5060254;28;20032;-66
2022/11/14 07:04:38;;;;;;;77.85;29.17;;;5.60;99.90;;;;;;5065131;28;20033;-66
2022/11/14 07:07:04;;;;;;;75.50;29.50;;;5.60;99.90;;;;;;5061293;28;20067;-66
2022/11/14 07:09:29;;;;;;;85.40;31.58;;;5.50;99.90;;;;;;5069797;28;20055;-65
2022/11/14 07:11:55;;;;;;;80.03;30.10;;;5.50;99.90;;;;;;5064763;28;20041;-66
2022/11/14 07:14:20;;;;;;;75.78;29.38;;;5.50;99.90;;;;;;5055348;28;20033;-66
2022/11/14 07:16:46;;;;;;;76.35;30.23;;;5.40;99.90;;;;;;5059045;28;20483;-63
2022/11/14 07:19:12;;;;;;;76.43;30.17;;;5.30;99.90;;;;;;5069722;28;20078;-67
2022/11/14 07:21:38;;;;;;;75.57;29.60;;;5.30;99.90;;;;;;5052225;28;20041;-65
2022/11/14 07:24:04;;;;;;;79.88;30.63;;;5.30;99.90;;;;;;5078165;28;20052;-66
2022/11/14 07:26:30;;;;;;;77.68;30.42;;;5.20;99.90;;;;;;5069967;28;20111;-65
2022/11/14 07:28:56;;;;;;;80.20;30.27;;;5.30;99.90;;;;;;5063884;28;20041;-67
2022/11/14 07:31:21;;;;;;;78.18;28.88;;;5.20;99.90;;;;;;5053900;28;20037;-66
2022/11/14 07:33:47;;;;;;;84.93;31.63;;;5.20;99.90;;;;;;5070504;28;20032;-63
2022/11/14 07:36:14;;;;;;;81.38;30.33;;;5.20;99.90;;;;;;5051348;28;20658;-67
2022/11/14 07:38:40;;;;;;;84.20;31.75;;;5.20;99.90;;;;;;5066659;28;20033;-66
2022/11/14 07:41:09;;;;;;;77.25;29.98;;;5.30;99.90;;;;;;5071144;28;20040;-66
2022/11/14 07:43:35;;;;;;;87.90;31.73;;;5.30;99.90;;;;;;5061453;28;20034;-66
2022/11/14 07:46:02;;;;;;;90.47;32.28;;;5.40;99.90;;;;;;5068606;28;20047;-66
2022/11/14 07:48:29;;;;;;;83.50;31.70;;;5.50;99.90;;;;;;5060029;28;20032;-66
2022/11/14 07:51:02;;;;;;;83.30;30.60;;;5.50;99.90;;;;;;5068319;28;20048;-66
2022/11/14 07:53:28;;;;;;;89.20;31.88;;;5.60;99.90;;;;;;5071582;28;20037;-66
2022/11/14 07:55:54;;;;;;;92.80;33.10;;;5.70;99.90;;;;;;5066652;28;20040;-66
2022/11/14 07:58:20;;;;;;;82.60;30.80;;;5.80;99.90;;;;;;5070765;28;20033;-66
2022/11/14 08:00:46;;;;;;;80.25;30.85;;;5.80;99.90;;;;;;5070500;28;20043;-66
2022/11/14 08:03:11;;;;;;;79.70;30.42;;;5.90;99.90;;;;;;5058828;28;20170;-66
2022/11/14 08:05:37;;;;;;;85.45;31.55;;;5.90;99.90;;;;;;5055780;28;20507;-67
2022/11/14 08:08:03;;;;;;;83.80;31.58;;;6.00;99.90;;;;;;5069413;28;20074;-67
2022/11/14 08:10:29;;;;;;;77.97;31.45;;;6.00;99.90;;;;;;5071248;28;20056;-66
2022/11/14 08:13:04;;;;;;;83.20;31.10;;;6.00;99.90;;;;;;5064832;28;20053;-65
2022/11/14 08:15:30;;;;;;;73.82;30.85;;;6.00;99.90;;;;;;5065068;28;20501;-66
2022/11/14 08:18:00;;;;;;;75.05;30.45;;;6.10;99.90;;;;;;5070639;28;20048;-67
2022/11/14 08:20:27;;;;;;;76.32;30.70;;;6.10;99.90;;;;;;5062563;28;20043;-66
2022/11/14 08:23:03;;;;;;;73.85;30.45;;;6.10;99.90;;;;;;5068919;28;20051;-66
2022/11/14 08:25:28;;;;;;;81.53;30.70;;;6.10;99.90;;;;;;5070727;28;20040;-67
2022/11/14 08:27:54;;;;;;;73.18;30.25;;;6.10;99.90;;;;;;5069809;28;20049;-66
2022/11/14 08:30:19;;;;;;;75.75;29.80;;;6.10;99.90;;;;;;5062279;28;20048;-66
2022/11/14 08:32:45;;;;;;;73.13;29.75;;;6.10;99.90;;;;;;5068974;28;20043;-67
2022/11/14 08:35:11;;;;;;;74.45;28.98;;;6.10;99.90;;;;;;5072941;28;20032;-67
2022/11/14 08:37:36;;;;;;;73.70;29.60;;;6.10;99.90;;;;;;5067789;28;20068;-67
2022/11/14 08:40:02;;;;;;;68.47;29.17;;;6.10;99.90;;;;;;5069126;28;20041;-66
2022/11/14 08:42:28;;;;;;;76.38;29.95;;;6.20;99.90;;;;;;5073895;28;20037;-66
2022/11/14 08:44:54;;;;;;;77.38;29.38;;;6.20;99.90;;;;;;5074347;28;20055;-66
2022/11/14 08:47:20;;;;;;;75.97;29.73;;;6.20;99.90;;;;;;5061790;28;20032;-67
2022/11/14 08:49:45;;;;;;;76.82;29.85;;;6.20;99.90;;;;;;5074166;28;20041;-67
2022/11/14 08:52:11;;;;;;;70.97;29.90;;;6.20;99.90;;;;;;5074059;28;20063;-66
2022/11/14 08:54:37;;;;;;;72.45;30.10;;;6.30;99.90;;;;;;5063929;28;20483;-67
2022/11/14 08:57:03;;;;;;;76.00;30.17;;;6.30;99.90;;;;;;5072883;28;20029;-66
2022/11/14 08:59:30;;;;;;;75.82;30.50;;;6.40;99.90;;;;;;5073737;28;20048;-67
2022/11/14 09:01:55;;;;;;;70.15;29.42;;;6.40;99.90;;;;;;5074174;28;20121;-67
2022/11/14 09:04:21;;;;;;;75.38;30.50;;;6.40;99.90;;;;;;5062461;28;20115;-66
2022/11/14 09:06:47;;;;;;;72.43;30.42;;;6.40;99.90;;;;;;5071348;28;20036;-66
2022/11/14 09:09:12;;;;;;;74.22;30.92;;;6.40;99.90;;;;;;5066290;28;20131;-66
2022/11/14 09:11:38;;;;;;;75.25;31.33;;;6.50;99.90;;;;;;5055998;28;20041;-64
2022/11/14 09:14:04;;;;;;;78.10;29.92;;;6.50;99.90;;;;;;5063586;28;20067;-64
2022/11/14 09:16:29;;;;;;;75.45;30.77;;;6.60;99.90;;;;;;5073379;28;20029;-64
2022/11/14 09:18:55;;;;;;;74.10;30.63;;;6.60;99.90;;;;;;5074097;28;20111;-64
2022/11/14 09:21:21;;;;;;;73.47;31.35;;;6.70;99.90;;;;;;5057141;28;20033;-65
2022/11/14 09:23:47;;;;;;;75.65;30.70;;;6.80;99.90;;;;;;5070070;28;20068;-64
2022/11/14 09:26:13;;;;;;;71.00;29.88;;;6.90;99.90;;;;;;5072739;28;20037;-69
2022/11/14 09:28:39;;;;;;;74.15;30.48;;;6.90;99.90;;;;;;5064599;28;20675;-64
2022/11/14 09:31:08;;;;;;;72.22;31.05;;;6.90;99.90;;;;;;5073011;28;20044;-64
2022/11/14 09:33:34;;;;;;;71.05;30.17;;;7.00;99.90;;;;;;5073647;28;20447;-65
2022/11/14 09:36:02;;;;;;;75.78;31.52;;;7.00;99.90;;;;;;5068285;28;20206;-66
2022/11/14 09:38:28;;;;;;;69.22;30.70;;;7.00;99.90;;;;;;5059892;28;20099;-65
2022/11/14 09:41:03;;;;;;;71.07;29.45;;;7.00;99.90;;;;;;5056986;28;20045;-65
2022/11/14 09:43:58;;;;;;;71.55;28.80;;;7.00;99.90;;;;;;5062788;28;20484;-66
2022/11/14 09:46:44;;;;;;;65.45;28.65;;;7.00;99.90;;;;;;5060283;28;20047;-66
2022/11/14 09:49:42;;;;;;;61.88;28.15;;;7.10;99.90;;;;;;5072939;28;20116;-65
2022/11/14 09:52:48;;;;;;;70.18;28.83;;;7.20;99.90;;;;;;5073175;28;20048;-66
2022/11/14 09:55:16;;;;;;;66.25;29.10;;;7.20;99.90;;;;;;5009549;28;20033;-66
2022/11/14 09:57:44;;;;;;;63.55;29.85;;;7.20;99.90;;;;;;5063162;28;20053;-65
2022/11/14 10:00:23;;;;;;;66.18;29.15;;;7.20;99.90;;;;;;5066151;28;20044;-66
2022/11/14 10:03:13;;;;;;;67.95;29.50;;;7.20;99.90;;;;;;5069425;28;20039;-66
2022/11/14 10:05:58;;;;;;;63.88;28.38;;;7.30;99.90;;;;;;5073096;28;20096;-66
2022/11/14 10:08:47;;;;;;;66.50;29.67;;;7.20;99.90;;;;;;5069863;28;20044;-66
2022/11/14 10:11:22;;;;;;;68.38;28.88;;;7.20;99.90;;;;;;5060723;28;20411;-66
2022/11/14 10:14:28;;;;;;;63.40;28.90;;;7.30;99.90;;;;;;5072373;28;20036;-66
2022/11/14 10:17:03;;;;;;;64.95;28.50;;;7.20;99.90;;;;;;5067113;28;20033;-67
2022/11/14 10:19:54;;;;;;;69.15;30.52;;;7.30;99.90;;;;;;5071923;28;20103;-66
2022/11/14 10:22:36;;;;;;;63.30;30.38;;;7.40;99.90;;;;;;5065417;28;20500;-66
2022/11/14 10:25:50;;;;;;;62.38;28.67;;;7.50;99.90;;;;;;5072458;28;20802;-67
2022/11/14 10:28:21;;;;;;;59.70;27.00;;;7.60;99.90;;;;;;5050260;28;20044;-66
2022/11/14 10:31:09;;;;;;;60.20;28.80;;;7.60;99.90;;;;;;5071750;28;20411;-65
2022/11/14 10:34:03;;;;;;;60.58;28.10;;;7.60;99.90;;;;;;5069065;28;20068;-66
2022/11/14 10:36:33;;;;;;;58.78;26.88;;;7.60;99.90;;;;;;5065895;28;20470;-66
2022/11/14 10:39:18;;;;;;;57.03;27.63;;;7.60;99.90;;;;;;5072100;28;20042;-67
2022/11/14 10:41:45;;;;;;;59.97;27.95;;;7.60;99.90;;;;;;5064346;28;20052;-65
2022/11/14 10:44:15;;;;;;;58.65;28.90;;;7.70;99.90;;;;;;5058628;28;20506;-67
2022/11/14 10:46:52;;;;;;;59.58;27.98;;;7.70;99.90;;;;;;5064001;28;20040;-67
2022/11/14 10:49:21;;;;;;;62.28;27.95;;;7.80;99.90;;;;;;5064567;28;20048;-66
2022/11/14 10:51:53;;;;;;;58.50;28.25;;;7.80;99.90;;;;;;5055826;28;20088;-66
2022/11/14 10:54:49;;;;;;;65.30;28.10;;;7.90;99.90;;;;;;5071984;28;20123;-67
2022/11/14 10:57:17;;;;;;;61.63;27.65;;;7.90;99.90;;;;;;5062421;28;20059;-66
2022/11/14 10:59:43;;;;;;;53.72;26.15;;;8.00;99.90;;;;;;5061026;28;20060;-66
2022/11/14 11:02:09;;;;;;;58.03;27.25;;;8.10;99.90;;;;;;5079257;28;20158;-65
2022/11/14 11:04:37;;;;;;;57.90;26.88;;;8.10;99.90;;;;;;5071819;28;20102;-67
2022/11/14 11:07:08;;;;;;;54.08;26.42;;;8.10;99.90;;;;;;5065172;28;20048;-66
2022/11/14 11:12:45;;;;;;;51.63;25.23;;;8.20;99.90;;;;;;5064928;28;20059;-67
2022/11/14 11:15:37;;;;;;;50.60;24.60;;;8.30;99.90;;;;;;5065419;28;20040;-66
2022/11/14 11:18:15;;;;;;;54.60;25.02;;;8.30;99.90;;;;;;5066244;28;20499;-66
2022/11/14 11:20:41;;;;;;;49.55;24.38;;;8.30;99.90;;;;;;5071435;28;20040;-64
2022/11/14 11:23:10;;;;;;;49.80;24.40;;;8.30;99.90;;;;;;5064067;28;20058;-65
2022/11/14 11:25:38;;;;;;;51.22;25.10;;;8.40;99.90;;;;;;5054403;28;20174;-66
2022/11/14 11:28:19;;;;;;;47.45;23.90;;;8.50;99.90;;;;;;5070370;28;20556;-66
2022/11/14 11:30:59;;;;;;;52.33;24.35;;;8.50;99.90;;;;;;5067732;28;20059;-66
2022/11/14 11:33:30;;;;;;;46.35;23.20;;;8.50;99.90;;;;;;5067597;28;20375;-66
2022/11/14 11:36:00;;;;;;;46.08;24.05;;;8.50;99.90;;;;;;5067517;28;20545;-66
2022/11/14 11:38:28;;;;;;;45.50;23.10;;;8.60;99.90;;;;;;5070518;28;20356;-66
2022/11/14 11:41:03;;;;;;;47.67;23.75;;;8.60;99.90;;;;;;5058862;28;20044;-64
2022/11/14 11:43:39;;;;;;;50.53;23.13;;;8.70;99.90;;;;;;5070424;28;20400;-65
2022/11/14 11:46:18;;;;;;;44.72;22.23;;;8.70;99.90;;;;;;5071416;28;20143;-64
2022/11/14 11:48:48;;;;;;;44.67;22.73;;;8.70;99.90;;;;;;5068864;28;20037;-67
2022/11/14 11:51:21;;;;;;;39.78;21.15;;;8.70;99.90;;;;;;5058469;28;20037;-65
2022/11/14 11:54:04;;;;;;;41.80;21.42;;;8.70;99.90;;;;;;5067565;28;20049;-65
2022/11/14 11:56:31;;;;;;;39.78;20.63;;;8.80;99.90;;;;;;5067307;28;20083;-65
2022/11/14 11:59:22;;;;;;;41.28;21.73;;;8.80;99.90;;;;;;5058943;28;20125;-65
2022/11/14 12:01:50;;;;;;;40.13;21.40;;;8.80;99.90;;;;;;5070197;28;20059;-66
2022/11/14 12:04:16;;;;;;;44.30;20.23;;;8.90;99.90;;;;;;5074898;28;20036;-64
2022/11/14 12:07:02;;;;;;;39.83;20.05;;;8.90;99.90;;;;;;5065424;28;20110;-65
2022/11/14 12:09:38;;;;;;;40.15;21.17;;;9.00;99.90;;;;;;5069707;28;20032;-64
2022/11/14 12:12:17;;;;;;;40.03;21.00;;;9.00;99.90;;;;;;5073851;28;20033;-65
2022/11/14 12:14:49;;;;;;;38.20;20.95;;;9.00;99.90;;;;;;5057964;28;20381;-64
2022/11/14 12:17:18;;;;;;;39.75;21.80;;;9.00;99.90;;;;;;5065517;28;20111;-65
2022/11/14 12:20:20;;;;;;;33.63;19.63;;;9.00;99.90;;;;;;5074348;28;20047;-65
2022/11/14 12:23:04;;;;;;;;;;;9.10;99.90;;;;;;5057785;28;20040;-64
2022/11/14 12:26:06;;;;;;;38.90;20.67;;;9.00;99.90;;;;;;5068962;28;20046;-64
2022/11/14 12:28:58;;;;;;;37.47;20.05;;;9.10;99.90;;;;;;5053613;28;20033;-64
2022/11/14 12:31:27;;;;;;;37.72;20.63;;;9.10;99.90;;;;;;5065018;28;20102;-64
2022/11/14 12:34:19;;;;;;;36.92;20.83;;;9.20;99.90;;;;;;5073417;28;20046;-65
2022/11/14 12:36:45;;;;;;;;;;;9.20;99.90;;;;;;5075486;28;20075;-65
2022/11/14 12:39:24;;;;;;;34.88;18.42;;;9.20;99.90;;;;;;5069479;28;19974;-66
2022/11/14 12:41:49;;;;;;;35.67;19.70;;;9.20;99.90;;;;;;5065416;28;20059;-64
2022/11/14 12:44:26;;;;;;;38.60;19.83;;;9.20;99.90;;;;;;5074050;28;20554;-65
2022/11/14 12:47:04;;;;;;;37.13;20.33;;;9.30;99.90;;;;;;5066023;28;20028;-64
2022/11/14 12:49:51;;;;;;;35.05;19.08;;;9.30;99.90;;;;;;5065186;28;20071;-66